Time;durP1;ratioP1;P1;durP2;ratioP2;P2;SDS_P1;SDS_P2;PMS_P1;PMS_P2;Temp;Humidity;BMP_temperature;BMP_pressure;BME280_temperature;BME280_humidity;BME280_pressure;Samples;Min_cycle;Max_cycle;Signal;HPM_P1;HPM_P2
2024/03/21 00:00:30;;;;;;;55.97;23.08;;;2.10;1.00;;;;;;4457162;27;656782;-67
2024/03/21 00:03:17;;;;;;;50.70;20.37;;;2.10;99.90;;;;;;4458011;27;656620;-67
2024/03/21 00:06:05;;;;;;;47.97;20.10;;;2.00;1.00;;;;;;4474145;27;658478;-67
2024/03/21 00:08:51;;;;;;;65.87;22.30;;;2.00;39.80;;;;;;4468797;27;656996;-67
2024/03/21 00:11:40;;;;;;;64.67;24.77;;;1.80;99.90;;;;;;4452894;27;658303;-67
2024/03/21 00:14:27;;;;;;;66.72;25.50;;;1.70;99.90;;;;;;4451240;27;658493;-67
2024/03/21 00:17:15;;;;;;;51.87;21.90;;;1.60;99.90;;;;;;4477865;27;658387;-67
2024/03/21 00:20:03;;;;;;;55.15;23.75;;;1.70;99.90;;;;;;4450110;27;658429;-68
2024/03/21 00:22:51;;;;;;;57.70;24.08;;;1.70;99.90;;;;;;4474823;27;658737;-66
2024/03/21 00:25:37;;;;;;;61.40;23.77;;;1.70;99.90;;;;;;4449199;27;657966;-67
2024/03/21 00:28:26;;;;;;;61.28;24.55;;;1.60;99.90;;;;;;4470362;27;657050;-66
2024/03/21 00:31:12;;;;;;;63.03;24.90;;;1.50;99.90;;;;;;4458658;27;658627;-67
2024/03/21 00:34:00;;;;;;;54.57;22.33;;;1.40;1.00;;;;;;4479856;27;658128;-67
2024/03/21 00:36:47;;;;;;;52.70;22.77;;;1.40;1.00;;;;;;4462963;27;655971;-67
2024/03/21 00:39:35;;;;;;;58.60;23.57;;;1.30;1.00;;;;;;4481719;27;656796;-67
2024/03/21 00:42:21;;;;;;;66.43;26.10;;;1.30;1.00;;;;;;4469535;27;656231;-66
2024/03/21 00:45:11;;;;;;;64.13;25.13;;;1.30;1.00;;;;;;4455732;27;657180;-67
2024/03/21 00:47:57;;;;;;;66.60;27.40;;;1.30;1.00;;;;;;4456845;27;657161;-67
2024/03/21 00:50:45;;;;;;;62.30;25.37;;;1.30;1.00;;;;;;4475949;27;656887;-67
2024/03/21 00:53:31;;;;;;;64.33;26.07;;;1.20;1.00;;;;;;4478260;27;656178;-67
2024/03/21 00:56:19;;;;;;;59.00;25.57;;;1.10;1.00;;;;;;4458785;27;656778;-67
2024/03/21 00:59:06;;;;;;;52.63;22.93;;;1.00;1.00;;;;;;4474262;27;657372;-66
2024/03/21 01:01:54;;;;;;;57.43;24.47;;;1.00;1.00;;;;;;4454619;27;657518;-67
2024/03/21 01:04:43;;;;;;;56.50;24.47;;;1.00;99.90;;;;;;4481152;27;655968;-67
2024/03/21 01:07:31;;;;;;;58.83;25.73;;;0.90;99.90;;;;;;4449511;27;658419;-67
2024/03/21 01:10:18;;;;;;;59.57;24.40;;;0.90;99.90;;;;;;4446792;27;657972;-67
2024/03/21 01:13:05;;;;;;;72.00;28.73;;;0.80;99.90;;;;;;4477357;27;658583;-67
2024/03/21 01:15:52;;;;;;;74.10;29.40;;;0.70;99.90;;;;;;4462413;27;658576;-68
2024/03/21 01:18:41;;;;;;;66.73;30.27;;;0.70;99.90;;;;;;4478455;27;657026;-67
2024/03/21 01:21:29;;;;;;;74.57;29.63;;;0.70;99.90;;;;;;4453874;27;657823;-68
2024/03/21 01:24:17;;;;;;;75.77;31.07;;;0.70;1.00;;;;;;4477928;27;658195;-67
2024/03/21 01:27:04;;;;;;;85.63;33.83;;;0.70;1.00;;;;;;4458660;27;657318;-66
2024/03/21 01:29:51;;;;;;;80.03;30.43;;;0.60;1.00;;;;;;4471788;27;656706;-67
2024/03/21 01:32:37;;;;;;;69.38;27.10;;;0.70;21.00;;;;;;4456548;27;657276;-67
2024/03/21 01:35:26;;;;;;;68.97;29.10;;;0.80;1.00;;;;;;4483189;27;657262;-67
2024/03/21 01:38:13;;;;;;;71.63;29.83;;;0.70;99.90;;;;;;4458087;27;656903;-67
2024/03/21 01:41:02;;;;;;;73.60;29.17;;;0.70;99.90;;;;;;4464143;28;658136;-67
2024/03/21 01:43:48;;;;;;;69.23;27.23;;;0.60;99.90;;;;;;4457561;27;657855;-67
2024/03/21 01:46:36;;;;;;;68.37;26.90;;;0.60;53.90;;;;;;4479343;27;658306;-67
2024/03/21 01:49:23;;;;;;;67.20;26.00;;;0.50;99.90;;;;;;4451330;27;658687;-67
2024/03/21 01:52:10;;;;;;;73.57;27.77;;;0.50;99.90;;;;;;4473863;28;657777;-68
2024/03/21 01:54:58;;;;;;;107.87;37.83;;;0.40;99.90;;;;;;4450739;28;658143;-67
2024/03/21 01:57:45;;;;;;;100.07;34.20;;;0.20;1.00;;;;;;4476666;28;659239;-67
2024/03/21 02:00:31;;;;;;;113.83;36.40;;;0.20;99.90;;;;;;4463512;28;657653;-67
2024/03/21 02:03:19;;;;;;;127.50;43.40;;;0.30;99.90;;;;;;4476907;28;658682;-67
2024/03/21 02:06:05;;;;;;;132.70;43.37;;;0.30;99.90;;;;;;4470447;28;658806;-67
2024/03/21 02:08:54;;;;;;;134.47;42.90;;;0.20;99.90;;;;;;4469743;27;658585;-67
2024/03/21 02:11:40;;;;;;;136.50;46.00;;;0.30;1.00;;;;;;4466950;28;659078;-66
2024/03/21 02:14:33;;;;;;;152.43;47.45;;;0.30;23.20;;;;;;4455715;28;658256;-68
2024/03/21 02:17:19;;;;;;;154.07;45.83;;;0.30;99.90;;;;;;4452721;27;658828;-66
2024/03/21 02:20:07;;;;;;;97.77;35.73;;;0.30;17.80;;;;;;4469083;28;658501;-67
2024/03/21 02:22:55;;;;;;;132.07;41.60;;;0.30;1.00;;;;;;4449899;28;657873;-67
2024/03/21 02:25:43;;;;;;;128.40;43.60;;;0.20;1.00;;;;;;4466532;28;657958;-67
2024/03/21 02:28:29;;;;;;;126.07;43.20;;;0.20;70.60;;;;;;4477339;28;658401;-67
2024/03/21 02:31:18;;;;;;;123.93;40.83;;;0.20;99.90;;;;;;4468590;27;658807;-67
2024/03/21 02:34:04;;;;;;;124.63;42.47;;;0.30;99.90;;;;;;4448184;28;659876;-66
2024/03/21 02:36:51;;;;;;;153.33;49.80;;;0.30;99.90;;;;;;4460479;28;658740;-67
2024/03/21 02:39:39;;;;;;;84.00;35.50;;;0.20;74.10;;;;;;4454004;27;658925;-67
2024/03/21 02:42:26;;;;;;;106.43;38.23;;;0.20;99.90;;;;;;4476448;28;658183;-67
2024/03/21 02:45:12;;;;;;;101.17;37.00;;;0.10;99.90;;;;;;4456916;28;658757;-67
2024/03/21 02:47:59;;;;;;;102.87;36.60;;;0.10;99.90;;;;;;4470174;28;658450;-67
2024/03/21 02:50:45;;;;;;;110.43;40.30;;;0.10;1.00;;;;;;4477539;27;658469;-67
2024/03/21 02:53:33;;;;;;;105.83;40.30;;;0.00;1.00;;;;;;4449150;28;657694;-67
2024/03/21 02:56:20;;;;;;;114.87;42.27;;;0.00;1.00;;;;;;4467311;28;658350;-67
2024/03/21 02:59:07;;;;;;;93.70;38.13;;;-0.10;1.00;;;;;;4451872;28;657951;-67
2024/03/21 03:01:54;;;;;;;114.93;42.83;;;-0.20;1.00;;;;;;4475279;27;657648;-67
2024/03/21 03:04:41;;;;;;;97.60;38.40;;;-0.20;1.00;;;;;;4451976;28;658963;-66
2024/03/21 03:07:27;;;;;;;89.57;36.63;;;-0.10;99.90;;;;;;4440020;28;657393;-66
2024/03/21 03:10:15;;;;;;;86.60;35.37;;;0.00;99.90;;;;;;4461704;27;659621;-66
2024/03/21 03:13:03;;;;;;;94.30;37.00;;;0.00;1.00;;;;;;4456513;28;657419;-66
2024/03/21 03:15:50;;;;;;;92.07;36.93;;;0.00;1.00;;;;;;4461210;28;657256;-66
2024/03/21 03:18:36;;;;;;;130.83;46.23;;;0.00;1.00;;;;;;4442194;28;656737;-67
2024/03/21 03:21:24;;;;;;;146.40;50.37;;;0.00;5.20;;;;;;4468452;28;657199;-67
2024/03/21 03:24:11;;;;;;;116.90;45.70;;;0.00;72.80;;;;;;4458920;28;657460;-67
2024/03/21 03:26:57;;;;;;;104.83;41.03;;;0.00;99.90;;;;;;4435569;28;658463;-67
2024/03/21 03:29:47;;;;;;;89.33;35.40;;;0.00;99.90;;;;;;4463719;28;658110;-67
2024/03/21 03:32:36;;;;;;;97.00;37.03;;;0.00;99.90;;;;;;4435052;28;657905;-67
2024/03/21 03:35:40;;;;;;;111.87;43.00;;;0.00;99.90;;;;;;4443624;28;658632;-67
2024/03/21 03:38:27;;;;;;;90.43;36.77;;;0.00;99.90;;;;;;4425989;28;659389;-68
2024/03/21 03:41:15;;;;;;;101.30;39.80;;;0.10;1.00;;;;;;4461206;28;657294;-67
2024/03/21 03:44:03;;;;;;;111.27;40.93;;;0.10;1.00;;;;;;4440154;28;658195;-67
2024/03/21 03:46:51;;;;;;;109.80;41.53;;;0.30;99.90;;;;;;4466998;28;657351;-66
2024/03/21 03:49:39;;;;;;;107.60;40.60;;;0.30;1.50;;;;;;4432678;27;658637;-66
2024/03/21 03:52:26;;;;;;;100.97;38.20;;;0.20;1.00;;;;;;4452407;28;658358;-67
2024/03/21 03:55:12;;;;;;;98.27;37.70;;;0.10;1.00;;;;;;4435640;27;657987;-67
2024/03/21 03:57:59;;;;;;;102.17;38.53;;;0.10;1.00;;;;;;4460825;28;656403;-68
2024/03/21 04:00:45;;;;;;;104.37;41.13;;;0.10;59.80;;;;;;4453340;28;657838;-67
2024/03/21 04:03:34;;;;;;;101.32;38.72;;;0.00;99.90;;;;;;4438466;27;658897;-67
2024/03/21 04:06:20;;;;;;;98.30;38.07;;;0.00;99.90;;;;;;4475952;27;659092;-66
2024/03/21 04:09:08;;;;;;;99.82;38.58;;;0.00;99.90;;;;;;4455323;27;657528;-67
2024/03/21 04:11:54;;;;;;;92.33;37.90;;;0.00;1.00;;;;;;4475670;27;658228;-67
2024/03/21 04:14:41;;;;;;;102.33;38.57;;;0.00;1.00;;;;;;4475545;27;656205;-67
2024/03/21 04:17:27;;;;;;;88.40;37.17;;;0.20;99.90;;;;;;4459212;27;657647;-68
2024/03/21 04:20:16;;;;;;;94.07;37.90;;;0.20;1.00;;;;;;4479666;27;658367;-67
2024/03/21 04:23:02;;;;;;;91.73;37.77;;;0.10;99.90;;;;;;4449329;27;657311;-67
2024/03/21 04:25:50;;;;;;;102.07;39.07;;;0.10;99.90;;;;;;4480929;27;658111;-67
2024/03/21 04:28:36;;;;;;;105.17;39.93;;;0.00;99.90;;;;;;4479352;27;658414;-68
2024/03/21 04:31:24;;;;;;;114.80;41.80;;;-0.10;99.90;;;;;;4473179;27;659002;-67
2024/03/21 04:34:11;;;;;;;120.83;46.23;;;-0.10;99.90;;;;;;4473365;27;660345;-67
2024/03/21 04:37:00;;;;;;;100.30;39.28;;;-0.10;99.90;;;;;;4451272;27;660212;-67
2024/03/21 04:39:47;;;;;;;109.27;40.37;;;-0.20;1.00;;;;;;4470003;27;659583;-66
2024/03/21 04:42:34;;;;;;;108.40;40.63;;;-0.20;1.00;;;;;;4453914;27;659254;-66
2024/03/21 04:45:22;;;;;;;104.90;39.33;;;-0.20;99.90;;;;;;4470413;27;658744;-67
2024/03/21 04:48:09;;;;;;;106.17;39.87;;;-0.20;1.00;;;;;;4447012;27;660680;-67
2024/03/21 04:50:56;;;;;;;127.30;44.50;;;-0.20;1.00;;;;;;4467363;27;658920;-67
2024/03/21 04:53:44;;;;;;;135.53;46.73;;;-0.20;1.00;;;;;;4446161;27;659290;-67
2024/03/21 04:56:31;;;;;;;109.13;40.00;;;-0.30;1.00;;;;;;4471638;27;658406;-67
2024/03/21 04:59:17;;;;;;;105.43;41.87;;;-0.30;1.00;;;;;;4456804;27;658765;-67
2024/03/21 05:02:05;;;;;;;103.73;39.50;;;-0.10;1.00;;;;;;4474669;27;659246;-67
2024/03/21 05:04:51;;;;;;;100.80;40.17;;;0.00;1.00;;;;;;4455836;27;658922;-67
2024/03/21 05:07:38;;;;;;;120.63;43.93;;;-0.10;99.90;;;;;;4440682;28;658088;-67
2024/03/21 05:10:26;;;;;;;113.87;42.93;;;0.00;99.90;;;;;;4460956;27;660887;-67
2024/03/21 05:13:13;;;;;;;112.67;42.53;;;0.00;99.90;;;;;;4432228;28;658793;-67
2024/03/21 05:15:59;;;;;;;106.97;41.67;;;0.00;99.90;;;;;;4458430;27;660193;-67
2024/03/21 05:18:46;;;;;;;134.87;48.10;;;0.10;99.90;;;;;;4448777;28;658779;-67
2024/03/21 05:21:33;;;;;;;159.50;54.57;;;0.10;99.90;;;;;;4438465;28;659038;-68
2024/03/21 05:24:20;;;;;;;139.07;51.77;;;0.20;1.00;;;;;;4455566;28;659504;-67
2024/03/21 05:27:09;;;;;;;204.90;66.20;;;0.30;1.00;;;;;;4450286;28;657676;-67
2024/03/21 05:29:56;;;;;;;226.47;74.23;;;0.30;1.00;;;;;;4457705;28;658007;-67
2024/03/21 05:32:42;;;;;;;269.33;87.33;;;0.40;1.00;;;;;;4432698;28;658163;-67
2024/03/21 05:35:29;;;;;;;299.38;100.63;;;0.50;1.00;;;;;;4463126;28;657318;-67
2024/03/21 05:38:16;;;;;;;232.80;80.53;;;0.70;1.00;;;;;;4458072;28;658514;-67
2024/03/21 05:41:03;;;;;;;234.43;86.30;;;0.90;1.00;;;;;;4440093;28;658451;-67
2024/03/21 05:43:51;;;;;;;202.83;78.80;;;1.00;1.00;;;;;;4458502;28;657211;-67
2024/03/21 05:46:38;;;;;;;169.00;62.57;;;1.10;1.00;;;;;;4433298;28;657994;-67
2024/03/21 05:49:24;;;;;;;201.27;73.77;;;1.30;99.90;;;;;;4458065;28;658469;-67
2024/03/21 05:52:11;;;;;;;144.87;54.90;;;1.50;99.90;;;;;;4450194;28;658426;-67
2024/03/21 05:54:59;;;;;;;203.03;76.70;;;1.50;99.90;;;;;;4440967;28;659449;-67
2024/03/21 05:57:45;;;;;;;227.70;83.10;;;1.20;99.90;;;;;;4457834;28;659174;-67
2024/03/21 06:00:35;;;;;;;182.10;70.83;;;1.40;99.90;;;;;;4451688;28;658965;-67
2024/03/21 06:03:22;;;;;;;159.20;63.10;;;1.70;99.90;;;;;;4450629;28;658992;-68
2024/03/21 06:06:09;;;;;;;164.73;64.03;;;1.90;99.90;;;;;;4469284;28;658821;-67
2024/03/21 06:08:56;;;;;;;149.47;59.77;;;2.10;1.00;;;;;;4469184;28;658516;-67
2024/03/21 06:11:43;;;;;;;153.67;61.47;;;2.30;1.00;;;;;;4452875;27;657446;-67
2024/03/21 06:14:29;;;;;;;137.93;56.17;;;2.60;1.00;;;;;;4477202;27;659105;-67
2024/03/21 06:17:18;;;;;;;146.52;55.58;;;2.80;99.90;;;;;;4477902;28;657097;-67
2024/03/21 06:20:06;;;;;;;125.37;51.17;;;2.90;1.00;;;;;;4445747;28;659311;-67
2024/03/21 06:22:53;;;;;;;123.00;50.43;;;3.10;1.00;;;;;;4456421;28;657722;-67
2024/03/21 06:25:39;;;;;;;127.85;50.70;;;3.30;1.00;;;;;;4478105;28;657121;-67
2024/03/21 06:28:26;;;;;;;110.17;47.13;;;3.50;1.00;;;;;;4479143;27;657416;-67
2024/03/21 06:31:13;;;;;;;104.93;45.10;;;3.70;1.00;;;;;;4454295;28;657649;-67
2024/03/21 06:34:02;;;;;;;110.73;46.00;;;4.00;1.00;;;;;;4471346;27;658605;-67
2024/03/21 06:36:49;;;;;;;104.80;44.53;;;4.20;1.00;;;;;;4460827;27;657661;-67
2024/03/21 06:39:35;;;;;;;108.37;46.50;;;4.50;99.90;;;;;;4477949;27;657450;-67
2024/03/21 06:42:22;;;;;;;114.63;49.20;;;4.70;99.90;;;;;;4461707;27;658798;-68
2024/03/21 06:45:09;;;;;;;106.13;46.73;;;4.80;99.90;;;;;;4466986;27;658993;-67
2024/03/21 06:47:57;;;;;;;100.65;44.47;;;5.00;99.90;;;;;;4472379;27;658770;-67
2024/03/21 06:50:44;;;;;;;97.97;43.67;;;5.30;1.00;;;;;;4456073;27;658978;-67
2024/03/21 06:53:32;;;;;;;96.07;41.30;;;5.60;1.00;;;;;;4479927;27;656329;-67
2024/03/21 06:56:18;;;;;;;94.53;41.03;;;5.80;99.90;;;;;;4453058;27;657676;-68
2024/03/21 06:59:05;;;;;;;93.07;41.23;;;6.00;15.20;;;;;;4477411;27;658723;-68
2024/03/21 07:01:51;;;;;;;95.13;40.90;;;6.10;1.00;;;;;;4463831;27;658164;-68
2024/03/21 07:04:38;;;;;;;90.23;41.00;;;6.30;1.00;;;;;;4462745;27;658018;-68
2024/03/21 07:07:26;;;;;;;90.50;41.50;;;6.50;1.00;;;;;;4465022;28;657178;-67
2024/03/21 07:10:13;;;;;;;85.90;40.73;;;6.50;1.00;;;;;;4441130;28;656859;-67
2024/03/21 07:13:01;;;;;;;88.73;39.70;;;6.60;1.00;;;;;;4465207;28;656719;-67
2024/03/21 07:15:47;;;;;;;87.73;38.47;;;6.60;1.00;;;;;;4442953;28;656716;-69
2024/03/21 07:18:34;;;;;;;78.90;37.57;;;6.90;99.90;;;;;;4469906;27;656858;-69
2024/03/21 07:21:20;;;;;;;82.63;36.97;;;7.10;99.90;;;;;;4461498;27;657674;-69
2024/03/21 07:24:09;;;;;;;84.70;37.03;;;7.30;99.90;;;;;;4444152;28;657567;-69
2024/03/21 07:26:56;;;;;;;85.33;37.20;;;7.00;99.90;;;;;;4458309;28;657921;-69
2024/03/21 07:29:43;;;;;;;74.23;34.17;;;6.90;1.00;;;;;;4438670;27;657618;-69
2024/03/21 07:32:30;;;;;;;78.60;35.83;;;7.00;99.90;;;;;;4462085;28;656966;-68
2024/03/21 07:35:17;;;;;;;80.97;37.40;;;6.90;99.90;;;;;;4449812;28;658114;-69
2024/03/21 07:38:04;;;;;;;78.40;34.67;;;7.20;99.90;;;;;;4462432;27;657502;-68
2024/03/21 07:40:56;;;;;;;80.97;35.70;;;7.60;99.90;;;;;;4461676;27;658357;-69
2024/03/21 07:43:43;;;;;;;83.37;37.57;;;7.80;99.90;;;;;;4442449;28;657783;-69
2024/03/21 07:46:29;;;;;;;83.00;38.10;;;8.00;99.90;;;;;;4457737;28;658514;-69
2024/03/21 07:49:16;;;;;;;77.83;36.60;;;8.20;99.90;;;;;;4457675;28;657678;-69
2024/03/21 07:52:03;;;;;;;83.83;38.83;;;8.40;99.90;;;;;;4441383;28;658264;-69
2024/03/21 07:54:50;;;;;;;85.17;39.80;;;8.50;99.90;;;;;;4460486;28;658229;-68
2024/03/21 07:57:39;;;;;;;83.23;39.00;;;8.50;99.90;;;;;;4446998;27;657928;-69
2024/03/21 08:00:26;;;;;;;83.13;38.30;;;8.60;99.90;;;;;;4456738;28;657483;-68
2024/03/21 08:03:14;;;;;;;81.77;39.07;;;8.40;99.90;;;;;;4446740;27;658260;-68
2024/03/21 08:06:00;;;;;;;80.90;37.33;;;8.20;99.90;;;;;;4478790;27;658448;-68
2024/03/21 08:08:47;;;;;;;78.87;37.23;;;8.30;99.90;;;;;;4469485;27;657846;-68
2024/03/21 08:11:34;;;;;;;77.83;37.33;;;8.50;99.90;;;;;;4482676;27;657930;-68
2024/03/21 08:14:22;;;;;;;76.43;35.97;;;8.70;99.90;;;;;;4478447;27;658429;-68
2024/03/21 08:17:09;;;;;;;76.50;35.87;;;9.00;1.00;;;;;;4459186;27;658341;-68
2024/03/21 08:19:56;;;;;;;83.15;37.20;;;9.20;1.00;;;;;;4468723;27;655929;-68
2024/03/21 08:22:43;;;;;;;77.17;37.30;;;9.30;1.00;;;;;;4444437;27;657666;-69
2024/03/21 08:25:29;;;;;;;77.47;34.83;;;9.40;1.00;;;;;;4473177;27;656753;-68
2024/03/21 08:28:17;;;;;;;75.77;37.07;;;9.70;1.00;;;;;;4473940;27;657340;-68
2024/03/21 08:31:04;;;;;;;73.17;36.37;;;9.70;1.00;;;;;;4453124;27;656822;-68
2024/03/21 08:33:53;;;;;;;77.95;36.25;;;9.90;1.00;;;;;;4469656;27;657418;-68
2024/03/21 08:36:39;;;;;;;76.13;35.33;;;10.10;1.00;;;;;;4446117;27;656988;-67
2024/03/21 08:39:26;;;;;;;81.40;37.60;;;9.90;1.00;;;;;;4473698;27;657613;-68
2024/03/21 08:42:12;;;;;;;80.97;36.57;;;10.00;37.20;;;;;;4452506;27;656703;-68
2024/03/21 08:45:00;;;;;;;76.43;35.93;;;9.80;43.00;;;;;;4473738;27;659189;-68
2024/03/21 08:47:48;;;;;;;80.30;35.53;;;10.00;69.20;;;;;;4451266;27;658273;-68
2024/03/21 08:50:35;;;;;;;81.33;37.03;;;10.00;1.00;;;;;;4470589;27;659338;-68
2024/03/21 08:53:22;;;;;;;79.47;36.63;;;10.10;1.00;;;;;;4449303;27;657524;-68
2024/03/21 08:56:10;;;;;;;85.47;36.83;;;10.00;1.00;;;;;;4473757;27;657601;-68
2024/03/21 08:58:57;;;;;;;73.03;35.42;;;9.70;1.00;;;;;;4458335;27;657988;-68
2024/03/21 09:01:44;;;;;;;71.93;34.50;;;9.70;1.00;;;;;;4474817;27;657473;-68
2024/03/21 09:04:32;;;;;;;74.67;34.13;;;9.90;1.00;;;;;;4467374;27;656342;-67
2024/03/21 09:07:20;;;;;;;68.17;32.97;;;10.20;1.00;;;;;;4444549;27;657223;-70
2024/03/21 09:10:07;;;;;;;66.50;32.23;;;10.50;1.00;;;;;;4471922;27;657975;-68
2024/03/21 09:12:55;;;;;;;62.43;30.77;;;10.70;1.00;;;;;;4472434;27;657597;-68
2024/03/21 09:15:42;;;;;;;70.37;33.77;;;10.60;1.00;;;;;;4456494;27;657756;-68
2024/03/21 09:18:29;;;;;;;65.53;32.37;;;10.90;1.00;;;;;;4478055;27;657254;-68
2024/03/21 09:21:17;;;;;;;68.07;29.13;;;10.50;1.00;;;;;;4476160;27;657837;-68
2024/03/21 09:24:06;;;;;;;63.03;26.90;;;11.10;1.00;;;;;;4442447;27;657795;-67
2024/03/21 09:26:52;;;;;;;59.10;27.87;;;11.00;1.00;;;;;;4454159;27;657597;-67
2024/03/21 09:29:40;;;;;;;48.90;20.30;;;10.90;1.00;;;;;;4471013;27;658105;-67
2024/03/21 09:32:27;;;;;;;62.97;30.33;;;11.20;1.00;;;;;;4473217;27;657503;-68
2024/03/21 09:35:14;;;;;;;64.43;29.30;;;11.10;1.00;;;;;;4476799;27;657517;-68
2024/03/21 09:38:03;;;;;;;57.40;25.47;;;11.50;1.00;;;;;;4476249;27;657968;-68
2024/03/21 09:40:51;;;;;;;56.63;26.67;;;11.30;1.00;;;;;;4449325;27;657847;-68
2024/03/21 09:43:38;;;;;;;59.88;28.52;;;11.40;1.00;;;;;;4451351;27;658049;-68
2024/03/21 09:46:26;;;;;;;56.50;25.57;;;11.80;1.00;;;;;;4471411;27;658688;-68
2024/03/21 09:49:13;;;;;;;46.27;21.07;;;11.80;1.00;;;;;;4455363;27;658625;-68
2024/03/21 09:52:00;;;;;;;54.70;25.17;;;12.00;1.00;;;;;;4468414;27;658770;-67
2024/03/21 09:54:50;;;;;;;45.27;21.73;;;12.20;1.00;;;;;;4453061;28;658121;-68
2024/03/21 09:57:37;;;;;;;45.47;21.00;;;12.30;1.00;;;;;;4465103;28;659262;-68
2024/03/21 10:00:24;;;;;;;43.90;21.63;;;12.30;1.00;;;;;;4476097;28;660891;-68
2024/03/21 10:03:13;;;;;;;46.93;21.63;;;12.10;1.00;;;;;;4472610;28;657430;-68
2024/03/21 10:06:04;;;;;;;49.30;22.30;;;12.30;1.00;;;;;;4452834;28;657853;-68
2024/03/21 10:08:51;;;;;;;44.97;21.87;;;12.90;1.00;;;;;;4449377;27;657355;-68
2024/03/21 10:11:40;;;;;;;49.77;23.83;;;13.00;1.00;;;;;;4455522;27;657999;-68
2024/03/21 10:14:27;;;;;;;46.20;22.77;;;13.30;1.00;;;;;;4454279;27;657697;-68
2024/03/21 10:17:15;;;;;;;42.07;18.77;;;13.20;1.00;;;;;;4474906;27;657332;-68
2024/03/21 10:20:02;;;;;;;44.47;18.30;;;13.10;1.00;;;;;;4470205;27;657314;-68
2024/03/21 10:22:51;;;;;;;40.03;17.80;;;12.70;1.00;;;;;;4478988;27;657735;-68
2024/03/21 10:25:37;;;;;;;41.10;17.90;;;12.90;1.00;;;;;;4457407;27;657763;-69
2024/03/21 10:28:27;;;;;;;43.30;21.20;;;12.90;1.00;;;;;;4480326;27;657753;-68
2024/03/21 10:31:14;;;;;;;40.07;19.07;;;12.50;1.00;;;;;;4454932;27;657864;-68
2024/03/21 10:34:01;;;;;;;40.80;19.37;;;13.40;1.00;;;;;;4475004;27;657924;-69
2024/03/21 10:36:47;;;;;;;40.60;18.87;;;13.70;1.00;;;;;;4456400;27;657952;-68
2024/03/21 10:39:34;;;;;;;37.50;17.40;;;14.30;1.00;;;;;;4472824;27;657658;-68
2024/03/21 10:42:24;;;;;;;21.77;7.73;;;14.50;1.00;;;;;;4478030;27;658192;-68
2024/03/21 10:45:14;;;;;;;42.27;17.43;;;14.00;1.00;;;;;;4451467;27;657216;-67
2024/03/21 10:48:01;;;;;;;39.43;17.70;;;13.60;1.00;;;;;;4445307;27;657397;-68
2024/03/21 10:50:48;;;;;;;35.20;16.20;;;13.60;1.00;;;;;;4456792;27;659623;-68
2024/03/21 10:53:36;;;;;;;35.63;17.13;;;14.50;1.00;;;;;;4470923;27;658221;-68
2024/03/21 10:56:27;;;;;;;33.93;17.10;;;15.30;1.00;;;;;;4453137;27;657951;-69
2024/03/21 10:59:14;;;;;;;38.97;19.33;;;15.70;1.00;;;;;;4450230;27;658163;-68
2024/03/21 11:02:04;;;;;;;40.00;19.00;;;14.70;1.00;;;;;;4475978;27;656796;-68
2024/03/21 11:04:50;;;;;;;44.57;20.10;;;14.80;1.00;;;;;;4447262;27;658251;-68
2024/03/21 11:07:38;;;;;;;34.17;14.87;;;15.80;1.00;;;;;;4451453;28;660124;-69
2024/03/21 11:10:24;;;;;;;36.27;18.53;;;15.60;1.00;;;;;;4474497;28;658385;-69
2024/03/21 11:13:12;;;;;;;38.43;18.70;;;15.80;1.00;;;;;;4474119;28;658497;-69
2024/03/21 11:15:58;;;;;;;39.60;19.37;;;16.20;1.00;;;;;;4447680;28;658261;-70
2024/03/21 11:18:47;;;;;;;35.13;17.10;;;16.40;1.00;;;;;;4480161;28;658531;-69
2024/03/21 11:21:33;;;;;;;39.27;17.87;;;15.60;1.00;;;;;;4451806;27;658095;-69
2024/03/21 11:24:20;;;;;;;36.20;16.93;;;15.00;1.00;;;;;;4467768;27;657399;-69
2024/03/21 11:27:13;;;;;;;33.73;16.13;;;15.10;1.00;;;;;;4450679;28;658121;-69
2024/03/21 11:30:00;;;;;;;38.13;17.60;;;14.80;1.00;;;;;;4453325;28;657645;-69
2024/03/21 11:32:46;;;;;;;35.93;16.57;;;15.60;1.00;;;;;;4449425;28;658175;-69
2024/03/21 11:35:37;;;;;;;31.87;16.47;;;16.90;1.00;;;;;;4476340;28;657827;-69
2024/03/21 11:38:26;;;;;;;30.67;15.87;;;17.80;1.00;;;;;;4452419;28;658243;-70
2024/03/21 11:41:18;;;;;;;29.43;16.03;;;18.20;1.00;;;;;;4457964;28;657301;-69
2024/03/21 11:44:04;;;;;;;34.33;14.77;;;16.60;1.00;;;;;;4446787;28;658020;-69
2024/03/21 11:46:51;;;;;;;28.03;15.50;;;16.60;1.00;;;;;;4477171;28;657735;-69
2024/03/21 11:49:38;;;;;;;35.07;15.20;;;16.00;1.00;;;;;;4449930;28;657883;-70
2024/03/21 11:52:26;;;;;;;29.93;14.70;;;16.40;1.00;;;;;;4467978;28;658309;-69
2024/03/21 11:55:12;;;;;;;29.83;14.20;;;16.60;1.00;;;;;;4457981;28;657490;-69
2024/03/21 11:58:00;;;;;;;31.87;15.90;;;16.60;1.00;;;;;;4473814;28;658713;-69
2024/03/21 12:00:46;;;;;;;31.90;16.07;;;17.10;1.00;;;;;;4470691;28;658335;-69
2024/03/21 12:03:33;;;;;;;33.37;15.37;;;17.60;1.00;;;;;;4403659;27;1166593;-69
2024/03/21 12:06:19;;;;;;;32.77;15.63;;;17.50;1.00;;;;;;4471574;27;659052;-69
2024/03/21 12:09:08;;;;;;;35.60;16.57;;;17.30;1.00;;;;;;4469799;27;658042;-69
2024/03/21 12:11:55;;;;;;;29.70;13.80;;;17.20;1.00;;;;;;4454481;27;658407;-69
2024/03/21 12:14:43;;;;;;;29.87;12.83;;;16.70;1.00;;;;;;4469456;27;658180;-68
2024/03/21 12:17:29;;;;;;;34.20;16.47;;;15.70;1.00;;;;;;4441853;27;657642;-68
2024/03/21 12:20:17;;;;;;;29.33;15.60;;;15.60;1.00;;;;;;4475494;27;658280;-69
2024/03/21 12:23:03;;;;;;;30.30;16.07;;;16.40;1.00;;;;;;4444431;27;657947;-69
2024/03/21 12:25:52;;;;;;;31.80;15.80;;;17.50;1.00;;;;;;4469927;27;658826;-69
2024/03/21 12:28:39;;;;;;;34.33;16.63;;;18.20;1.00;;;;;;4447855;27;657602;-69
2024/03/21 12:31:25;;;;;;;30.50;14.80;;;17.50;1.00;;;;;;4469198;27;656944;-68
2024/03/21 12:34:12;;;;;;;34.23;14.03;;;15.80;1.00;;;;;;4450883;27;658156;-69
2024/03/21 12:36:59;;;;;;;24.53;11.60;;;16.20;1.00;;;;;;4475588;27;658810;-69
2024/03/21 12:39:46;;;;;;;32.43;15.13;;;15.90;1.00;;;;;;4478744;27;657610;-69
2024/03/21 12:42:33;;;;;;;29.40;15.00;;;16.10;1.00;;;;;;4452208;27;658133;-69
2024/03/21 12:45:21;;;;;;;26.37;13.63;;;17.00;1.00;;;;;;4469978;27;659411;-69
2024/03/21 12:48:08;;;;;;;23.93;13.00;;;17.80;1.00;;;;;;4445951;27;657614;-69
2024/03/21 12:50:55;;;;;;;23.73;12.77;;;17.10;1.00;;;;;;4475189;27;657772;-69
2024/03/21 12:53:41;;;;;;;28.63;13.07;;;16.00;1.00;;;;;;4454888;27;657733;-69
2024/03/21 12:56:29;;;;;;;26.83;11.77;;;16.80;1.00;;;;;;4475105;27;657476;-69
2024/03/21 12:59:16;;;;;;;24.13;12.47;;;17.20;1.00;;;;;;4468511;27;657666;-69
2024/03/21 13:02:04;;;;;;;23.17;11.93;;;18.80;1.00;;;;;;4448592;27;657440;-69
2024/03/21 13:04:50;;;;;;;28.13;13.47;;;18.30;1.00;;;;;;4476219;27;658311;-69
2024/03/21 13:07:37;;;;;;;22.27;10.60;;;18.00;1.00;;;;;;4456833;27;657974;-70
2024/03/21 13:10:24;;;;;;;21.67;10.47;;;17.40;1.00;;;;;;4463913;27;658934;-69
2024/03/21 13:13:11;;;;;;;22.60;10.97;;;17.40;1.00;;;;;;4469691;27;658131;-69
2024/03/21 13:15:58;;;;;;;25.53;12.43;;;17.40;1.00;;;;;;4445859;27;658091;-69
2024/03/21 13:18:45;;;;;;;32.10;15.50;;;18.00;1.00;;;;;;4468374;27;658382;-69
2024/03/21 13:21:32;;;;;;;26.33;13.83;;;18.80;1.00;;;;;;4442656;27;657599;-69
2024/03/21 13:24:19;;;;;;;29.73;13.87;;;18.50;1.00;;;;;;4471262;27;657895;-69
2024/03/21 13:27:05;;;;;;;31.17;13.23;;;17.20;1.00;;;;;;4469665;27;657693;-69
2024/03/21 13:29:53;;;;;;;27.80;12.90;;;17.40;1.00;;;;;;4455820;27;657325;-70
2024/03/21 13:32:41;;;;;;;27.17;14.23;;;18.90;1.00;;;;;;4471213;27;658353;-69
2024/03/21 13:35:28;;;;;;;25.97;13.37;;;19.20;1.00;;;;;;4450352;27;657799;-70
2024/03/21 13:38:16;;;;;;;29.40;14.17;;;20.30;1.00;;;;;;4471025;27;658094;-69
2024/03/21 13:41:03;;;;;;;23.40;13.20;;;20.00;1.00;;;;;;4452670;27;657399;-69
2024/03/21 13:43:50;;;;;;;24.53;12.80;;;20.90;1.00;;;;;;4469992;27;657925;-69
2024/03/21 13:46:37;;;;;;;23.70;10.63;;;22.00;1.00;;;;;;4464809;27;657608;-70
2024/03/21 13:49:25;;;;;;;21.47;10.73;;;20.20;1.00;;;;;;4475112;27;658977;-69
2024/03/21 13:52:12;;;;;;;18.70;7.83;;;18.70;1.00;;;;;;4458056;27;657549;-69
2024/03/21 13:54:59;;;;;;;16.60;7.17;;;18.00;1.00;;;;;;4474982;27;657138;-68
2024/03/21 13:57:46;;;;;;;13.73;6.83;;;17.60;1.00;;;;;;4469046;28;657048;-68
2024/03/21 14:00:33;;;;;;;19.57;7.70;;;16.60;1.00;;;;;;4453510;28;656890;-69
2024/03/21 14:03:22;;;;;;;17.57;8.80;;;16.50;1.00;;;;;;4470591;28;656990;-69
2024/03/21 14:06:17;;;;;;;21.03;9.63;;;17.10;1.00;;;;;;4455481;28;657950;-69